createdAt,value
2023-03-24T00:00:18.805Z,12.43
2023-03-24T00:02:46.646Z,12.47
2023-03-24T00:05:20.811Z,12.48
2023-03-24T00:07:54.575Z,12.52
2023-03-24T00:10:22.977Z,12.52
2023-03-24T00:12:49.925Z,12.50
2023-03-24T00:15:19.545Z,12.67
2023-03-24T00:17:50.377Z,12.69
2023-03-24T00:20:20.449Z,12.74
2023-03-24T00:22:51.105Z,12.73
2023-03-24T00:25:20.000Z,12.87
2023-03-24T00:27:51.517Z,12.87
2023-03-24T00:30:19.431Z,12.90
2023-03-24T00:32:46.514Z,12.90
2023-03-24T00:35:17.539Z,13.07
2023-03-24T00:37:44.893Z,13.05
2023-03-24T00:40:17.451Z,13.07
2023-03-24T00:42:45.974Z,13.09
2023-03-24T00:45:15.843Z,13.18
2023-03-24T00:47:46.085Z,13.15
2023-03-24T00:50:15.916Z,13.15
2023-03-24T00:52:44.366Z,13.26
2023-03-24T00:55:16.147Z,13.22
2023-03-24T00:57:50.492Z,13.21
2023-03-24T01:00:26.169Z,13.14
2023-03-24T01:03:00.046Z,13.26
2023-03-24T01:05:29.787Z,13.31
2023-03-24T01:07:58.144Z,13.35
2023-03-24T01:10:26.865Z,13.30
2023-03-24T01:12:58.173Z,13.33
2023-03-24T01:15:29.501Z,13.31
2023-03-24T01:17:56.820Z,13.41
2023-03-24T01:20:25.220Z,13.40
2023-03-24T01:22:52.422Z,13.41
2023-03-24T01:25:21.918Z,13.34
2023-03-24T01:27:51.217Z,13.35
2023-03-24T01:30:21.209Z,13.27
2023-03-24T01:32:47.912Z,13.22
2023-03-24T01:35:15.150Z,13.13
2023-03-24T01:37:46.425Z,13.00
2023-03-24T01:40:22.682Z,12.93
2023-03-24T01:42:51.324Z,12.85
2023-03-24T01:45:39.947Z,12.70
2023-03-24T01:48:14.665Z,12.76
2023-03-24T01:50:45.128Z,12.73
2023-03-24T01:53:12.570Z,12.69
2023-03-24T01:55:39.949Z,12.59
2023-03-24T01:58:07.298Z,12.49
2023-03-24T02:00:34.916Z,12.37
2023-03-24T02:03:08.976Z,12.29
2023-03-24T02:05:38.876Z,12.25
2023-03-24T02:08:31.723Z,12.15
2023-03-24T02:11:00.500Z,12.17
2023-03-24T02:13:27.087Z,12.04
2023-03-24T02:16:12.950Z,12.05
2023-03-24T02:18:54.893Z,11.99
2023-03-24T02:21:43.856Z,11.99
2023-03-24T02:24:32.092Z,11.95
2023-03-24T02:27:23.370Z,11.91
2023-03-24T02:30:10.987Z,11.93
2023-03-24T02:33:14.111Z,11.91
2023-03-24T02:35:52.888Z,11.95
2023-03-24T02:38:38.182Z,11.81
2023-03-24T02:41:38.559Z,11.80
2023-03-24T02:44:20.441Z,11.79
2023-03-24T02:46:52.400Z,11.78
2023-03-24T02:49:36.907Z,11.74
2023-03-24T02:52:12.831Z,11.85
2023-03-24T02:54:57.199Z,11.83
2023-03-24T02:57:42.402Z,11.81
2023-03-24T03:00:36.813Z,11.81
2023-03-24T03:03:09.691Z,11.90
2023-03-24T03:05:44.763Z,11.90
2023-03-24T03:08:17.500Z,11.95
2023-03-24T03:10:48.408Z,11.87
2023-03-24T03:13:40.314Z,11.89
2023-03-24T03:16:25.515Z,12.04
2023-03-24T03:18:58.100Z,12.03
2023-03-24T03:21:29.965Z,11.96
2023-03-24T03:24:02.426Z,12.02
2023-03-24T03:26:32.735Z,11.99
2023-03-24T03:29:09.122Z,12.03
2023-03-24T03:31:42.020Z,12.01
2023-03-24T03:34:31.688Z,11.91
2023-03-24T03:37:06.197Z,11.99
2023-03-24T03:39:37.023Z,11.99
2023-03-24T03:42:07.210Z,12.03
2023-03-24T03:44:33.820Z,11.93
2023-03-24T03:47:00.605Z,12.06
2023-03-24T03:49:27.301Z,12.03
2023-03-24T03:51:55.820Z,12.15
2023-03-24T03:54:25.660Z,12.25
2023-03-24T03:56:52.418Z,12.23
2023-03-24T03:59:28.747Z,12.25
2023-03-24T04:01:55.680Z,12.25
2023-03-24T04:05:06.421Z,12.21
2023-03-24T04:07:41.733Z,12.29
2023-03-24T04:10:39.137Z,12.29
2023-03-24T04:13:27.034Z,12.27
2023-03-24T04:16:16.492Z,12.30
2023-03-24T04:19:03.680Z,12.28
2023-03-24T04:21:54.035Z,12.27
2023-03-24T04:24:45.289Z,12.25
2023-03-24T04:27:27.309Z,12.21
2023-03-24T04:30:16.510Z,12.25
2023-03-24T04:32:49.757Z,12.25
2023-03-24T04:35:40.786Z,12.34
2023-03-24T04:38:13.143Z,12.35
2023-03-24T04:40:42.396Z,12.41
2023-03-24T04:43:13.850Z,12.42
2023-03-24T04:45:41.833Z,12.44
2023-03-24T04:48:12.701Z,12.43
2023-03-24T04:50:43.195Z,12.46
2023-03-24T04:53:10.651Z,12.36
2023-03-24T04:55:51.190Z,12.35
2023-03-24T04:58:18.958Z,12.34
2023-03-24T05:00:47.725Z,12.33
2023-03-24T05:03:15.980Z,12.33
2023-03-24T05:05:44.282Z,12.38
2023-03-24T05:08:11.710Z,12.42
2023-03-24T05:10:38.293Z,12.44
2023-03-24T05:13:10.182Z,12.50
2023-03-24T05:15:36.754Z,12.54
2023-03-24T05:18:04.958Z,12.58
2023-03-24T05:20:31.801Z,12.66
2023-03-24T05:22:58.568Z,12.67
2023-03-24T05:25:25.337Z,12.76
2023-03-24T05:27:56.204Z,12.65
2023-03-24T05:30:22.971Z,12.71
2023-03-24T05:32:49.584Z,12.79
2023-03-24T05:35:16.204Z,12.87
2023-03-24T05:37:42.924Z,12.87
2023-03-24T05:40:09.988Z,12.98
2023-03-24T05:42:40.186Z,12.98
2023-03-24T05:45:07.553Z,13.01
2023-03-24T05:47:34.139Z,13.01
2023-03-24T05:50:00.895Z,13.13
2023-03-24T05:52:28.747Z,13.15
2023-03-24T05:54:56.725Z,13.21
2023-03-24T05:57:25.319Z,13.23
2023-03-24T05:59:52.289Z,13.28
2023-03-24T06:02:18.876Z,13.26
2023-03-24T06:04:46.740Z,13.33
2023-03-24T06:07:14.447Z,13.33
2023-03-24T06:09:46.999Z,13.34
2023-03-24T06:12:16.315Z,13.37
2023-03-24T06:14:43.182Z,13.44
2023-03-24T06:17:14.887Z,13.43
2023-03-24T06:19:49.577Z,13.34
2023-03-24T06:22:18.168Z,13.39
2023-03-24T06:24:44.955Z,13.31
2023-03-24T06:27:12.204Z,13.13
2023-03-24T06:29:40.013Z,13.12
2023-03-24T06:32:06.566Z,12.95
2023-03-24T06:34:33.144Z,12.95
2023-03-24T06:36:59.729Z,12.89
2023-03-24T06:39:26.519Z,12.83
2023-03-24T06:41:53.558Z,12.82
2023-03-24T06:44:20.171Z,12.77
2023-03-24T06:46:47.373Z,12.76
2023-03-24T06:49:13.992Z,12.79
2023-03-24T06:51:40.541Z,12.74
2023-03-24T06:54:07.125Z,12.77
2023-03-24T06:56:34.883Z,12.65
2023-03-24T06:59:01.605Z,12.65
2023-03-24T07:01:28.139Z,12.62
2023-03-24T07:04:04.066Z,12.53
2023-03-24T07:06:30.940Z,12.57
2023-03-24T07:08:58.980Z,12.55
2023-03-24T07:11:25.537Z,12.61
2023-03-24T07:13:54.698Z,12.55
2023-03-24T07:16:22.329Z,12.60
2023-03-24T07:18:49.118Z,12.68
2023-03-24T07:21:15.751Z,12.76
2023-03-24T07:23:42.343Z,12.78
2023-03-24T07:26:09.104Z,12.82
2023-03-24T07:28:35.723Z,12.85
2023-03-24T07:31:04.317Z,12.88
2023-03-24T07:33:31.814Z,12.94
2023-03-24T07:35:59.587Z,12.86
2023-03-24T07:38:26.870Z,12.94
2023-03-24T07:40:54.013Z,13.05
2023-03-24T07:43:21.987Z,13.14
2023-03-24T07:45:52.480Z,13.38
2023-03-24T07:48:19.139Z,13.61
2023-03-24T07:50:46.813Z,13.92
2023-03-24T07:53:15.118Z,14.54
2023-03-24T07:55:41.855Z,14.38
2023-03-24T07:58:08.430Z,14.29
2023-03-24T08:00:35.388Z,14.09
2023-03-24T08:03:03.479Z,14.12
2023-03-24T08:05:30.898Z,14.17
2023-03-24T08:07:58.645Z,14.27
2023-03-24T08:10:29.851Z,14.39
2023-03-24T08:12:57.715Z,14.44
2023-03-24T08:15:25.118Z,14.43
2023-03-24T08:17:51.963Z,14.52
2023-03-24T08:20:24.733Z,14.63
2023-03-24T08:22:54.272Z,14.84
2023-03-24T08:25:24.035Z,15.24
2023-03-24T08:27:51.788Z,15.29
2023-03-24T08:30:23.924Z,15.09
2023-03-24T08:32:56.441Z,15.09
2023-03-24T08:35:26.841Z,15.11
2023-03-24T08:37:53.619Z,15.15
2023-03-24T08:40:24.375Z,15.21
2023-03-24T08:42:59.376Z,15.36
2023-03-24T08:45:28.425Z,15.35
2023-03-24T08:47:57.245Z,15.11
2023-03-24T08:50:29.920Z,15.08
2023-03-24T08:52:57.132Z,14.92
2023-03-24T08:55:24.506Z,15.04
2023-03-24T08:57:51.196Z,15.24
2023-03-24T09:00:19.769Z,15.37
2023-03-24T09:02:48.730Z,15.40
2023-03-24T09:05:21.182Z,15.70
2023-03-24T09:07:52.658Z,15.66
2023-03-24T09:10:24.948Z,15.55
2023-03-24T09:12:53.945Z,15.64
2023-03-24T09:15:20.571Z,15.60
2023-03-24T09:17:47.288Z,15.55
2023-03-24T09:20:16.009Z,15.58
2023-03-24T09:22:46.039Z,15.51
2023-03-24T09:25:15.762Z,15.58
2023-03-24T09:27:42.352Z,15.63
2023-03-24T09:30:10.777Z,15.93
2023-03-24T09:32:37.852Z,16.10
2023-03-24T09:35:08.779Z,16.13
2023-03-24T09:37:36.980Z,16.13
2023-03-24T09:40:05.050Z,15.98
2023-03-24T09:42:38.799Z,15.97
2023-03-24T09:45:15.001Z,16.22
2023-03-24T09:47:48.954Z,16.27
2023-03-24T09:50:26.265Z,16.07
2023-03-24T09:52:59.238Z,16.04
2023-03-24T09:55:28.484Z,16.15
2023-03-24T09:58:04.391Z,16.60
2023-03-24T10:00:32.899Z,16.70
2023-03-24T10:03:11.406Z,16.82
2023-03-24T10:05:46.653Z,16.77
2023-03-24T10:08:30.662Z,16.95
2023-03-24T10:11:14.688Z,17.00
2023-03-24T10:14:17.368Z,16.93
2023-03-24T10:17:11.067Z,16.96
2023-03-24T10:19:54.091Z,16.66
2023-03-24T10:22:32.586Z,16.58
2023-03-24T10:25:51.906Z,16.44
2023-03-24T10:28:51.732Z,16.27
2023-03-24T10:31:26.193Z,16.14
2023-03-24T10:33:52.747Z,15.80
2023-03-24T10:36:23.889Z,14.46
2023-03-24T10:38:51.019Z,14.38
2023-03-24T10:41:23.585Z,13.93
2023-03-24T10:43:54.587Z,13.32
2023-03-24T10:46:28.151Z,12.68
2023-03-24T10:49:10.187Z,12.49
2023-03-24T10:51:45.044Z,12.41
2023-03-24T10:54:25.803Z,12.54
2023-03-24T10:56:58.262Z,12.60
2023-03-24T10:59:59.911Z,12.22
2023-03-24T11:02:31.763Z,11.99
2023-03-24T11:05:23.610Z,11.79
2023-03-24T11:07:51.958Z,11.71
2023-03-24T11:10:25.225Z,11.69
2023-03-24T11:12:54.867Z,11.59
2023-03-24T11:15:30.653Z,11.60
2023-03-24T11:18:03.653Z,11.35
2023-03-24T11:20:41.283Z,11.15
2023-03-24T11:23:42.948Z,11.14
2023-03-24T11:26:19.981Z,11.16
2023-03-24T11:29:06.370Z,11.12
2023-03-24T11:31:38.900Z,11.12
2023-03-24T11:34:24.935Z,11.16
2023-03-24T11:37:06.432Z,11.20
2023-03-24T11:39:34.323Z,11.18
2023-03-24T11:42:17.027Z,11.24
2023-03-24T11:44:53.782Z,11.23
2023-03-24T11:47:31.196Z,11.29
2023-03-24T11:50:10.829Z,11.38
2023-03-24T11:52:46.565Z,11.40
2023-03-24T11:55:21.746Z,11.34
2023-03-24T11:57:59.207Z,11.46
2023-03-24T12:00:29.548Z,11.48
2023-03-24T12:03:39.594Z,11.56
2023-03-24T12:06:30.557Z,11.51
2023-03-24T12:09:21.094Z,11.58
2023-03-24T12:12:09.196Z,11.86
2023-03-24T12:14:47.756Z,11.94
2023-03-24T12:17:20.306Z,11.81
2023-03-24T12:19:58.870Z,11.65
2023-03-24T12:22:49.781Z,11.60
2023-03-24T12:25:54.772Z,11.31
2023-03-24T12:28:37.981Z,11.27
2023-03-24T12:31:34.622Z,11.24
2023-03-24T12:34:32.257Z,11.24
2023-03-24T12:37:22.321Z,11.28
2023-03-24T12:40:12.256Z,11.37
2023-03-24T12:42:47.026Z,11.44
2023-03-24T12:45:28.776Z,11.49
2023-03-24T12:48:05.826Z,11.58
2023-03-24T12:50:43.723Z,11.74
2023-03-24T12:53:41.841Z,11.80
2023-03-24T12:56:14.897Z,12.02
2023-03-24T12:58:49.663Z,11.93
2023-03-24T13:01:29.463Z,11.89
2023-03-24T13:04:05.711Z,12.15
2023-03-24T13:07:11.790Z,12.21
2023-03-24T13:10:18.908Z,12.35
2023-03-24T13:12:58.517Z,12.97
2023-03-24T13:15:34.791Z,12.81
2023-03-24T13:18:18.295Z,12.59
2023-03-24T13:21:04.898Z,12.75
2023-03-24T13:23:57.392Z,12.77
2023-03-24T13:26:41.341Z,12.74
2023-03-24T13:29:22.160Z,12.82
2023-03-24T13:32:05.476Z,12.84
2023-03-24T13:34:38.959Z,12.60
2023-03-24T13:37:15.009Z,12.67
2023-03-24T13:39:44.824Z,12.69
2023-03-24T13:42:33.475Z,13.04
2023-03-24T13:45:02.703Z,13.03
2023-03-24T13:47:49.467Z,13.38
2023-03-24T13:50:17.233Z,13.40
2023-03-24T13:52:48.103Z,13.75
2023-03-24T13:55:30.274Z,14.07
2023-03-24T13:58:08.744Z,14.08
2023-03-24T14:01:11.113Z,14.07
2023-03-24T14:03:43.470Z,14.22
2023-03-24T14:06:18.054Z,13.87
2023-03-24T14:09:09.168Z,13.62
2023-03-24T14:11:35.672Z,13.58
2023-03-24T14:14:06.732Z,13.81
2023-03-24T14:16:33.223Z,14.02
2023-03-24T14:19:22.065Z,14.24
2023-03-24T14:21:57.680Z,14.22
2023-03-24T14:24:35.595Z,13.85
2023-03-24T14:27:29.273Z,13.78
2023-03-24T14:30:02.179Z,13.83
2023-03-24T14:32:29.702Z,14.16
2023-03-24T14:34:58.384Z,14.16
2023-03-24T14:37:27.749Z,14.06
2023-03-24T14:39:59.340Z,14.05
2023-03-24T14:42:32.176Z,14.03
2023-03-24T14:44:59.993Z,13.77
2023-03-24T14:47:35.311Z,13.82
2023-03-24T14:50:17.686Z,13.91
2023-03-24T14:52:50.950Z,13.81
2023-03-24T14:55:19.717Z,13.88
2023-03-24T14:57:51.515Z,14.03
2023-03-24T15:00:29.624Z,14.19
2023-03-24T15:03:19.046Z,14.04
2023-03-24T15:05:50.423Z,13.99
2023-03-24T15:08:22.465Z,13.71
2023-03-24T15:10:49.859Z,13.59
2023-03-24T15:13:32.854Z,13.68
2023-03-24T15:16:01.234Z,13.77
2023-03-24T15:18:28.042Z,13.99
2023-03-24T15:20:54.833Z,14.07
2023-03-24T15:23:30.412Z,13.96
2023-03-24T15:25:58.054Z,13.91
2023-03-24T15:28:27.471Z,13.74
2023-03-24T15:30:56.444Z,13.50
2023-03-24T15:33:26.330Z,13.39
2023-03-24T15:35:58.520Z,13.46
2023-03-24T15:38:31.479Z,13.46
2023-03-24T15:41:13.956Z,13.56
2023-03-24T15:43:44.697Z,13.56
2023-03-24T15:46:43.808Z,13.55
2023-03-24T15:49:21.090Z,13.50
2023-03-24T15:52:01.314Z,13.42
2023-03-24T15:54:49.475Z,13.39
2023-03-24T15:57:22.381Z,13.36
2023-03-24T15:59:53.972Z,13.44
2023-03-24T16:02:38.960Z,13.27
2023-03-24T16:05:23.980Z,13.19
2023-03-24T16:07:56.352Z,13.29
2023-03-24T16:10:40.551Z,13.26
2023-03-24T16:13:20.769Z,13.18
2023-03-24T16:15:57.988Z,13.19
2023-03-24T16:18:37.352Z,13.07
2023-03-24T16:21:19.106Z,13.09
2023-03-24T16:23:47.104Z,12.98
2023-03-24T16:26:19.628Z,12.89
2023-03-24T16:28:53.833Z,12.85
2023-03-24T16:31:31.204Z,12.88
2023-03-24T16:33:58.408Z,12.84
2023-03-24T16:36:34.230Z,12.85
2023-03-24T16:39:01.811Z,12.91
2023-03-24T16:41:28.985Z,12.80
2023-03-24T16:43:55.617Z,12.79
2023-03-24T16:46:38.804Z,12.79
2023-03-24T16:49:07.602Z,12.74
2023-03-24T16:51:34.572Z,12.68
2023-03-24T16:54:05.254Z,12.62
2023-03-24T16:56:34.283Z,12.66
2023-03-24T16:59:00.913Z,12.63
2023-03-24T17:01:35.817Z,12.58
2023-03-24T17:04:15.164Z,12.55
2023-03-24T17:06:45.058Z,12.52
2023-03-24T17:09:12.739Z,12.49
2023-03-24T17:11:52.281Z,12.47
2023-03-24T17:14:18.954Z,12.38
2023-03-24T17:16:48.393Z,12.36
2023-03-24T17:19:17.803Z,12.33
2023-03-24T17:21:52.911Z,12.32
2023-03-24T17:24:20.125Z,12.27
2023-03-24T17:26:46.731Z,12.29
2023-03-24T17:29:13.902Z,12.13
2023-03-24T17:31:45.283Z,12.01
2023-03-24T17:34:21.749Z,11.89
2023-03-24T17:36:50.688Z,11.80
2023-03-24T17:39:21.600Z,11.61
2023-03-24T17:41:56.060Z,11.54
2023-03-24T17:44:22.660Z,11.33
2023-03-24T17:46:49.311Z,11.39
2023-03-24T17:49:15.888Z,11.22
2023-03-24T17:51:42.495Z,11.13
2023-03-24T17:54:10.596Z,11.02
2023-03-24T17:56:37.434Z,10.99
2023-03-24T17:59:04.836Z,10.94
2023-03-24T18:01:35.083Z,10.90
2023-03-24T18:04:01.833Z,10.83
2023-03-24T18:06:28.460Z,10.91
2023-03-24T18:08:57.385Z,10.87
2023-03-24T18:11:23.962Z,10.76
2023-03-24T18:13:50.795Z,10.65
2023-03-24T18:16:21.866Z,10.63
2023-03-24T18:18:50.321Z,10.47
2023-03-24T18:21:17.694Z,10.38
2023-03-24T18:23:44.474Z,10.33
2023-03-24T18:26:11.282Z,10.18
2023-03-24T18:28:39.213Z,10.26
2023-03-24T18:31:32.802Z,10.29
2023-03-24T18:34:01.261Z,10.27
2023-03-24T18:36:29.059Z,10.34
2023-03-24T18:39:00.173Z,10.39
2023-03-24T18:41:28.458Z,10.28
2023-03-24T18:43:55.978Z,10.41
2023-03-24T18:46:23.228Z,10.47
2023-03-24T18:48:52.766Z,10.42
2023-03-24T18:51:21.085Z,10.44
2023-03-24T18:53:48.465Z,10.41
2023-03-24T18:56:15.859Z,10.41
2023-03-24T18:58:53.177Z,10.47
2023-03-24T19:01:23.168Z,10.46
2023-03-24T19:03:51.113Z,10.50
2023-03-24T19:06:18.870Z,10.55
2023-03-24T19:08:49.828Z,10.54
2023-03-24T19:11:17.863Z,10.61
2023-03-24T19:13:47.258Z,10.65
2023-03-24T19:16:13.759Z,10.72
2023-03-24T19:18:40.372Z,10.65
2023-03-24T19:21:07.849Z,10.57
2023-03-24T19:23:34.993Z,10.62
2023-03-24T19:26:02.166Z,10.64
2023-03-24T19:28:33.387Z,10.70
2023-03-24T19:31:07.783Z,10.55
2023-03-24T19:33:35.901Z,10.52
2023-03-24T19:36:02.990Z,10.50
2023-03-24T19:38:29.688Z,10.41
2023-03-24T19:40:56.693Z,10.39
2023-03-24T19:43:24.455Z,10.30
2023-03-24T19:45:53.080Z,10.32
2023-03-24T19:48:20.107Z,10.22
2023-03-24T19:50:49.575Z,10.28
2023-03-24T19:53:16.502Z,10.26
2023-03-24T19:55:43.076Z,10.48
2023-03-24T19:58:09.522Z,10.45
2023-03-24T20:00:36.155Z,10.53
2023-03-24T20:03:02.694Z,10.64
2023-03-24T20:05:29.550Z,10.68
2023-03-24T20:07:59.704Z,10.69
2023-03-24T20:10:27.375Z,10.69
2023-03-24T20:12:54.314Z,10.84
2023-03-24T20:15:21.005Z,10.90
2023-03-24T20:17:48.092Z,11.00
2023-03-24T20:20:15.252Z,11.02
2023-03-24T20:22:44.714Z,11.09
2023-03-24T20:25:14.240Z,11.15
2023-03-24T20:27:41.159Z,11.23
2023-03-24T20:30:08.430Z,11.11
2023-03-24T20:32:35.798Z,11.07
2023-03-24T20:35:05.421Z,11.03
2023-03-24T20:37:35.806Z,11.11
2023-03-24T20:40:05.415Z,11.10
2023-03-24T20:42:33.242Z,10.99
2023-03-24T20:45:00.138Z,10.95
2023-03-24T20:47:29.780Z,10.88
2023-03-24T20:49:56.375Z,10.77
2023-03-24T20:52:23.386Z,10.79
2023-03-24T20:54:51.473Z,10.82
2023-03-24T20:57:20.306Z,10.79
2023-03-24T20:59:48.315Z,10.61
2023-03-24T21:02:15.677Z,10.55
2023-03-24T21:04:42.385Z,10.51
2023-03-24T21:07:09.065Z,10.54
2023-03-24T21:09:35.716Z,10.65
2023-03-24T21:12:03.291Z,10.62
2023-03-24T21:14:30.240Z,10.58
2023-03-24T21:16:56.879Z,10.66
2023-03-24T21:19:23.506Z,10.73
2023-03-24T21:21:50.332Z,10.72
2023-03-24T21:24:17.806Z,10.74
2023-03-24T21:26:46.409Z,10.79
2023-03-24T21:29:13.312Z,10.87
2023-03-24T21:31:41.814Z,10.89
2023-03-24T21:34:08.634Z,10.89
2023-03-24T21:36:38.541Z,10.87
2023-03-24T21:39:10.311Z,10.94
2023-03-24T21:41:38.997Z,10.97
2023-03-24T21:44:08.532Z,10.91
2023-03-24T21:46:35.469Z,10.91
2023-03-24T21:49:02.081Z,10.77
2023-03-24T21:51:34.207Z,10.65
2023-03-24T21:54:04.168Z,10.51
2023-03-24T21:56:32.839Z,10.54
2023-03-24T21:59:00.355Z,10.38
2023-03-24T22:01:27.314Z,10.45
2023-03-24T22:03:58.752Z,10.22
2023-03-24T22:06:29.442Z,10.10
2023-03-24T22:08:58.582Z,10.14
2023-03-24T22:11:25.904Z,10.01
2023-03-24T22:13:52.710Z,9.96
2023-03-24T22:16:19.164Z,9.92
2023-03-24T22:18:56.129Z,9.86
2023-03-24T22:21:22.840Z,9.73
2023-03-24T22:23:49.349Z,9.63
2023-03-24T22:26:16.949Z,9.59
2023-03-24T22:28:43.974Z,9.46
2023-03-24T22:31:16.760Z,9.41
2023-03-24T22:33:44.360Z,9.36
2023-03-24T22:36:11.645Z,9.32
2023-03-24T22:38:38.191Z,9.29
2023-03-24T22:41:07.514Z,9.11
2023-03-24T22:43:35.915Z,9.09
2023-03-24T22:46:03.263Z,9.03
2023-03-24T22:48:29.811Z,9.15
2023-03-24T22:50:56.455Z,9.17
2023-03-24T22:53:23.425Z,9.03
2023-03-24T22:55:50.536Z,9.02
2023-03-24T22:58:17.478Z,9.01
2023-03-24T23:00:46.885Z,9.06
2023-03-24T23:03:13.470Z,8.96
2023-03-24T23:05:41.488Z,8.89
2023-03-24T23:08:09.203Z,8.97
2023-03-24T23:10:38.159Z,8.95
2023-03-24T23:13:04.644Z,8.95
2023-03-24T23:15:32.067Z,8.95
2023-03-24T23:17:59.622Z,9.12
2023-03-24T23:20:28.250Z,9.13
2023-03-24T23:22:55.037Z,9.30
2023-03-24T23:25:26.256Z,9.28
2023-03-24T23:27:52.847Z,9.30
2023-03-24T23:30:19.808Z,9.35
2023-03-24T23:32:47.084Z,9.39
2023-03-24T23:35:14.745Z,9.46
2023-03-24T23:37:47.293Z,9.42
2023-03-24T23:40:15.644Z,9.49
2023-03-24T23:42:45.396Z,9.53
2023-03-24T23:45:18.081Z,9.65
2023-03-24T23:47:49.785Z,9.70
2023-03-24T23:50:18.623Z,9.69
2023-03-24T23:52:45.541Z,9.72
2023-03-24T23:55:13.723Z,9.64
2023-03-24T23:57:42.529Z,9.71
